AFR6199 LFPO-LFKB
Flight info
| Callsign | AFR6199 |
|---|---|
| Flight time | 1h 16m |
| Altitude | 37000 |
| Route | LATRA DCT LAMUT DCT UTUVA DCT TITVA DCT NOQAS DCT OTROT DCT RETNO DCT KOLON DCT NARTI UP991 NIRDO |
| Aircraft | A320/M-SDE3FGHIRWY/LB1 |
Departure
| Time | 2026-04-20 03:56 |
|---|---|
| Airport | Paris-Orly Airport (LFPO) |
Arrival
| Time | 2026-04-20 05:12 |
|---|---|
| Airport | Bastia-Poretta International airport (LFKB) |
| Time | Latitude | Longitude | Altitude | Speed | Heading |
|---|---|---|---|---|---|
| 2026-04-20 03:32 | 48.72653 | 2.35768 | 297 ft | 0 kts | 122° |
| 2026-04-20 03:49 | 48.72650 | 2.35771 | 294 ft | 1 kts | 140° |
| 2026-04-20 03:49 | 48.72635 | 2.35777 | 295 ft | 5 kts | 161° |
| 2026-04-20 03:49 | 48.72597 | 2.35766 | 295 ft | 6 kts | 223° |
| 2026-04-20 03:49 | 48.72576 | 2.35723 | 298 ft | 5 kts | 251° |
| 2026-04-20 03:50 | 48.72558 | 2.35688 | 298 ft | 5 kts | 205° |
| 2026-04-20 03:50 | 48.72518 | 2.35700 | 297 ft | 6 kts | 162° |
| 2026-04-20 03:50 | 48.72478 | 2.35706 | 295 ft | 5 kts | 196° |
| 2026-04-20 03:50 | 48.72458 | 2.35672 | 297 ft | 5 kts | 243° |
| 2026-04-20 03:51 | 48.72424 | 2.35620 | 296 ft | 7 kts | 213° |
| 2026-04-20 03:51 | 48.72381 | 2.35623 | 297 ft | 6 kts | 171° |
| 2026-04-20 03:51 | 48.72346 | 2.35631 | 294 ft | 5 kts | 171° |
| 2026-04-20 03:51 | 48.72314 | 2.35631 | 293 ft | 7 kts | 192° |
| 2026-04-20 03:52 | 48.72260 | 2.35609 | 295 ft | 8 kts | 190° |
| 2026-04-20 03:52 | 48.72196 | 2.35615 | 295 ft | 11 kts | 170° |
| 2026-04-20 03:52 | 48.72116 | 2.35648 | 293 ft | 12 kts | 162° |
| 2026-04-20 03:52 | 48.72059 | 2.35716 | 297 ft | 10 kts | 132° |
| 2026-04-20 03:53 | 48.72019 | 2.35790 | 297 ft | 8 kts | 129° |
| 2026-04-20 03:53 | 48.71993 | 2.35859 | 296 ft | 7 kts | 115° |
| 2026-04-20 03:53 | 48.71977 | 2.35913 | 295 ft | 4 kts | 113° |
| 2026-04-20 03:53 | 48.71970 | 2.35950 | 297 ft | 4 kts | 103° |
| 2026-04-20 03:54 | 48.71965 | 2.35991 | 294 ft | 3 kts | 93° |
| 2026-04-20 03:54 | 48.71970 | 2.36021 | 293 ft | 2 kts | 75° |
| 2026-04-20 03:54 | 48.71974 | 2.36040 | 297 ft | 1 kts | 75° |
| 2026-04-20 03:54 | 48.71975 | 2.36047 | 296 ft | 0 kts | 75° |
| 2026-04-20 03:55 | 48.71979 | 2.36071 | 296 ft | 11 kts | 73° |
| 2026-04-20 03:55 | 48.72069 | 2.36540 | 296 ft | 82 kts | 74° |
| 2026-04-20 03:55 | 48.72276 | 2.37672 | 298 ft | 138 kts | 74° |
| 2026-04-20 03:56 | 48.72554 | 2.39218 | 587 ft | 159 kts | 73° |
| 2026-04-20 03:56 | 48.72838 | 2.40851 | 1343 ft | 158 kts | 72° |
| 2026-04-20 03:56 | 48.73137 | 2.42449 | 2064 ft | 159 kts | 72° |
| 2026-04-20 03:56 | 48.73455 | 2.44143 | 2443 ft | 178 kts | 72° |
| 2026-04-20 03:57 | 48.73812 | 2.46052 | 2706 ft | 200 kts | 73° |
| 2026-04-20 03:57 | 48.74110 | 2.48223 | 3011 ft | 223 kts | 82° |
| 2026-04-20 03:57 | 48.74246 | 2.50696 | 3416 ft | 247 kts | 85° |
| 2026-04-20 03:57 | 48.74329 | 2.53380 | 4148 ft | 256 kts | 86° |
| 2026-04-20 03:58 | 48.74331 | 2.56120 | 4993 ft | 264 kts | 97° |
| 2026-04-20 03:58 | 48.73547 | 2.58653 | 5760 ft | 275 kts | 133° |
| 2026-04-20 03:58 | 48.71942 | 2.60241 | 6580 ft | 281 kts | 158° |
| 2026-04-20 03:58 | 48.70064 | 2.61119 | 7396 ft | 284 kts | 168° |
| 2026-04-20 03:59 | 48.68119 | 2.61730 | 8195 ft | 288 kts | 171° |
| 2026-04-20 03:59 | 48.66126 | 2.62192 | 8977 ft | 292 kts | 180° |
| 2026-04-20 03:59 | 48.64100 | 2.61955 | 9771 ft | 293 kts | 194° |
| 2026-04-20 03:59 | 48.62146 | 2.61088 | 10517 ft | 294 kts | 206° |
| 2026-04-20 04:00 | 48.60286 | 2.59720 | 11008 ft | 306 kts | 210° |
| 2026-04-20 04:00 | 48.58312 | 2.58202 | 11217 ft | 330 kts | 210° |
| 2026-04-20 04:00 | 48.56218 | 2.56593 | 11651 ft | 343 kts | 210° |
| 2026-04-20 04:00 | 48.54077 | 2.54953 | 12333 ft | 347 kts | 210° |
| 2026-04-20 04:01 | 48.51910 | 2.53291 | 13049 ft | 351 kts | 211° |
| 2026-04-20 04:01 | 48.49724 | 2.51614 | 13767 ft | 354 kts | 211° |
| 2026-04-20 04:01 | 48.48241 | 2.50476 | 14210 ft | 356 kts | 211° |
| 2026-04-20 04:01 | 48.45225 | 2.48414 | 15033 ft | 364 kts | 202° |
| 2026-04-20 04:02 | 48.43581 | 2.47671 | 15454 ft | 367 kts | 201° |
| 2026-04-20 04:02 | 48.41126 | 2.46567 | 16095 ft | 369 kts | 202° |
| 2026-04-20 04:02 | 48.38661 | 2.45449 | 16734 ft | 371 kts | 202° |
| 2026-04-20 04:02 | 48.36177 | 2.44316 | 17337 ft | 374 kts | 203° |
| 2026-04-20 04:03 | 48.33673 | 2.43172 | 17946 ft | 377 kts | 203° |
| 2026-04-20 04:03 | 48.31113 | 2.42192 | 18516 ft | 386 kts | 195° |
| 2026-04-20 04:03 | 48.28388 | 2.41950 | 19001 ft | 398 kts | 183° |
| 2026-04-20 04:03 | 48.25615 | 2.42572 | 19479 ft | 410 kts | 170° |
| 2026-04-20 04:04 | 48.22845 | 2.43965 | 19957 ft | 417 kts | 165° |
| 2026-04-20 04:04 | 48.20136 | 2.45419 | 20428 ft | 420 kts | 165° |
| 2026-04-20 04:04 | 48.17339 | 2.46908 | 20881 ft | 423 kts | 165° |
| 2026-04-20 04:04 | 48.14588 | 2.48364 | 21331 ft | 427 kts | 165° |
| 2026-04-20 04:05 | 48.11736 | 2.49868 | 21781 ft | 431 kts | 166° |
| 2026-04-20 04:05 | 48.08900 | 2.51361 | 22217 ft | 434 kts | 166° |
| 2026-04-20 04:05 | 48.06032 | 2.52855 | 22639 ft | 437 kts | 166° |
| 2026-04-20 04:05 | 48.03139 | 2.54306 | 23082 ft | 440 kts | 167° |
| 2026-04-20 04:06 | 48.00215 | 2.55728 | 23496 ft | 444 kts | 167° |
| 2026-04-20 04:06 | 47.97264 | 2.57149 | 23857 ft | 448 kts | 167° |
| 2026-04-20 04:06 | 47.94293 | 2.58581 | 24242 ft | 450 kts | 167° |
| 2026-04-20 04:06 | 47.91313 | 2.60035 | 24630 ft | 451 kts | 167° |
| 2026-04-20 04:07 | 47.88324 | 2.61505 | 25014 ft | 453 kts | 167° |
| 2026-04-20 04:07 | 47.85325 | 2.62983 | 25393 ft | 455 kts | 167° |
| 2026-04-20 04:07 | 47.82313 | 2.64463 | 25756 ft | 456 kts | 167° |
| 2026-04-20 04:07 | 47.79293 | 2.65947 | 26132 ft | 458 kts | 167° |
| 2026-04-20 04:08 | 47.76267 | 2.67434 | 26472 ft | 460 kts | 167° |
| 2026-04-20 04:08 | 47.73227 | 2.68927 | 26854 ft | 461 kts | 167° |
| 2026-04-20 04:08 | 47.70177 | 2.70420 | 27215 ft | 462 kts | 167° |
| 2026-04-20 04:08 | 47.67114 | 2.71909 | 27566 ft | 464 kts | 167° |
| 2026-04-20 04:09 | 47.64040 | 2.73392 | 27911 ft | 466 kts | 167° |
| 2026-04-20 04:09 | 47.60950 | 2.74879 | 28262 ft | 468 kts | 167° |
| 2026-04-20 04:09 | 47.57853 | 2.76368 | 28595 ft | 469 kts | 167° |
| 2026-04-20 04:09 | 47.54740 | 2.77865 | 28902 ft | 471 kts | 167° |
| 2026-04-20 04:10 | 47.51617 | 2.79373 | 29223 ft | 473 kts | 167° |
| 2026-04-20 04:10 | 47.48482 | 2.80896 | 29530 ft | 475 kts | 167° |
| 2026-04-20 04:10 | 47.45302 | 2.82446 | 29815 ft | 476 kts | 167° |
| 2026-04-20 04:10 | 47.42145 | 2.83973 | 30102 ft | 478 kts | 167° |
| 2026-04-20 04:11 | 47.38977 | 2.85490 | 30351 ft | 479 kts | 167° |
| 2026-04-20 04:11 | 47.35798 | 2.87006 | 30598 ft | 481 kts | 167° |
| 2026-04-20 04:11 | 47.32611 | 2.88527 | 30810 ft | 483 kts | 167° |
| 2026-04-20 04:11 | 47.29415 | 2.90057 | 31083 ft | 483 kts | 167° |
| 2026-04-20 04:12 | 47.26222 | 2.91591 | 31441 ft | 481 kts | 167° |
| 2026-04-20 04:12 | 47.23044 | 2.93121 | 31800 ft | 480 kts | 166° |
| 2026-04-20 04:12 | 47.19879 | 2.94640 | 32154 ft | 478 kts | 167° |
| 2026-04-20 04:12 | 47.16719 | 2.96146 | 32504 ft | 477 kts | 167° |
| 2026-04-20 04:13 | 47.13570 | 2.97638 | 32839 ft | 475 kts | 166° |
| 2026-04-20 04:13 | 47.10418 | 2.99118 | 33175 ft | 474 kts | 167° |
| 2026-04-20 04:13 | 47.07270 | 3.00498 | 33519 ft | 472 kts | 168° |
| 2026-04-20 04:13 | 47.04116 | 3.01792 | 33879 ft | 470 kts | 169° |
| 2026-04-20 04:14 | 47.00963 | 3.03048 | 34189 ft | 469 kts | 169° |
| 2026-04-20 04:14 | 46.97817 | 3.04293 | 34459 ft | 468 kts | 169° |
| 2026-04-20 04:14 | 46.94677 | 3.05541 | 34720 ft | 468 kts | 169° |
| 2026-04-20 04:14 | 46.91540 | 3.06798 | 34933 ft | 468 kts | 169° |
| 2026-04-20 04:15 | 46.88394 | 3.08078 | 35146 ft | 469 kts | 168° |
| 2026-04-20 04:15 | 46.85247 | 3.09370 | 35364 ft | 469 kts | 168° |
| 2026-04-20 04:15 | 46.82110 | 3.10663 | 35581 ft | 469 kts | 168° |
| 2026-04-20 04:15 | 46.78966 | 3.11958 | 35799 ft | 469 kts | 168° |
| 2026-04-20 04:16 | 46.75823 | 3.13249 | 36012 ft | 469 kts | 168° |
| 2026-04-20 04:16 | 46.72675 | 3.14537 | 36229 ft | 469 kts | 168° |
| 2026-04-20 04:16 | 46.69536 | 3.15823 | 36430 ft | 469 kts | 169° |
| 2026-04-20 04:16 | 46.66389 | 3.17104 | 36631 ft | 469 kts | 169° |
| 2026-04-20 04:17 | 46.63238 | 3.18378 | 36823 ft | 469 kts | 169° |
| 2026-04-20 04:17 | 46.60095 | 3.19648 | 37024 ft | 469 kts | 169° |
| 2026-04-20 04:17 | 46.53798 | 3.22200 | 37112 ft | 469 kts | 169° |
| 2026-04-20 04:18 | 46.47507 | 3.24737 | 37112 ft | 469 kts | 169° |
| 2026-04-20 04:18 | 46.41169 | 3.27273 | 37114 ft | 469 kts | 169° |
| 2026-04-20 04:19 | 46.34872 | 3.29790 | 37113 ft | 469 kts | 169° |
| 2026-04-20 04:19 | 46.28576 | 3.32319 | 37099 ft | 470 kts | 169° |
| 2026-04-20 04:20 | 46.22274 | 3.34860 | 37104 ft | 470 kts | 169° |
| 2026-04-20 04:20 | 46.15962 | 3.37368 | 37103 ft | 471 kts | 169° |
| 2026-04-20 04:21 | 46.09642 | 3.39875 | 37085 ft | 471 kts | 169° |
| 2026-04-20 04:21 | 46.03318 | 3.42380 | 37091 ft | 472 kts | 169° |
| 2026-04-20 04:22 | 45.96982 | 3.44881 | 37100 ft | 472 kts | 169° |
| 2026-04-20 04:22 | 45.90643 | 3.47389 | 37094 ft | 473 kts | 169° |
| 2026-04-20 04:23 | 45.84494 | 3.50894 | 37102 ft | 482 kts | 153° |
| 2026-04-20 04:23 | 45.78869 | 3.56181 | 37106 ft | 484 kts | 150° |
| 2026-04-20 04:24 | 45.73239 | 3.61477 | 37108 ft | 484 kts | 150° |
| 2026-04-20 04:24 | 45.67599 | 3.66745 | 37091 ft | 484 kts | 150° |
| 2026-04-20 04:25 | 45.61951 | 3.72022 | 37099 ft | 485 kts | 150° |
| 2026-04-20 04:25 | 45.56271 | 3.77336 | 37108 ft | 485 kts | 150° |
| 2026-04-20 04:26 | 45.50623 | 3.82609 | 37101 ft | 485 kts | 150° |
| 2026-04-20 04:26 | 45.44971 | 3.87864 | 37119 ft | 485 kts | 150° |
| 2026-04-20 04:27 | 45.39326 | 3.93125 | 37119 ft | 486 kts | 148° |
| 2026-04-20 04:27 | 45.34381 | 3.99729 | 37119 ft | 492 kts | 129° |
| 2026-04-20 04:28 | 45.30349 | 4.07610 | 37096 ft | 493 kts | 127° |
| 2026-04-20 04:28 | 45.26323 | 4.15499 | 37105 ft | 494 kts | 127° |
| 2026-04-20 04:29 | 45.22284 | 4.23369 | 37107 ft | 494 kts | 127° |
| 2026-04-20 04:29 | 45.18236 | 4.31242 | 37112 ft | 494 kts | 127° |
| 2026-04-20 04:30 | 45.14180 | 4.39101 | 37108 ft | 494 kts | 127° |
| 2026-04-20 04:30 | 45.10074 | 4.46900 | 37087 ft | 493 kts | 130° |
| 2026-04-20 04:31 | 45.05647 | 4.54299 | 37092 ft | 493 kts | 134° |
| 2026-04-20 04:31 | 45.01055 | 4.61493 | 37097 ft | 493 kts | 134° |
| 2026-04-20 04:32 | 44.96504 | 4.68730 | 37096 ft | 493 kts | 133° |
| 2026-04-20 04:32 | 44.92014 | 4.76050 | 37088 ft | 493 kts | 132° |
| 2026-04-20 04:33 | 44.87542 | 4.83367 | 37066 ft | 493 kts | 133° |
| 2026-04-20 04:33 | 44.83011 | 4.90699 | 37067 ft | 493 kts | 133° |
| 2026-04-20 04:34 | 44.79252 | 4.96740 | 37085 ft | 493 kts | 133° |
| 2026-04-20 04:34 | 44.74734 | 5.03982 | 37078 ft | 493 kts | 133° |
| 2026-04-20 04:35 | 44.70210 | 5.11232 | 37065 ft | 493 kts | 133° |
| 2026-04-20 04:35 | 44.65684 | 5.18480 | 37071 ft | 494 kts | 133° |
| 2026-04-20 04:36 | 44.58871 | 5.29337 | 37062 ft | 494 kts | 133° |
| 2026-04-20 04:37 | 44.54329 | 5.36555 | 37072 ft | 494 kts | 133° |
| 2026-04-20 04:37 | 44.49781 | 5.43769 | 37070 ft | 493 kts | 133° |
| 2026-04-20 04:38 | 44.45229 | 5.50964 | 37059 ft | 493 kts | 133° |
| 2026-04-20 04:38 | 44.40642 | 5.58180 | 37059 ft | 493 kts | 133° |
| 2026-04-20 04:39 | 44.36371 | 5.65690 | 37062 ft | 494 kts | 124° |
| 2026-04-20 04:39 | 44.32527 | 5.73657 | 37066 ft | 494 kts | 124° |
| 2026-04-20 04:40 | 44.28670 | 5.81606 | 37060 ft | 494 kts | 124° |
| 2026-04-20 04:40 | 44.24799 | 5.89529 | 37042 ft | 494 kts | 125° |
| 2026-04-20 04:41 | 44.20926 | 5.97438 | 37044 ft | 494 kts | 125° |
| 2026-04-20 04:41 | 44.17048 | 6.05352 | 37049 ft | 494 kts | 125° |
| 2026-04-20 04:42 | 44.13174 | 6.13246 | 37059 ft | 494 kts | 125° |
| 2026-04-20 04:42 | 44.09290 | 6.21131 | 37054 ft | 494 kts | 125° |
| 2026-04-20 04:43 | 44.05398 | 6.28996 | 37049 ft | 493 kts | 125° |
| 2026-04-20 04:43 | 44.01499 | 6.36852 | 37031 ft | 494 kts | 125° |
| 2026-04-20 04:44 | 43.97578 | 6.44755 | 37024 ft | 494 kts | 125° |
| 2026-04-20 04:44 | 43.93671 | 6.52607 | 37038 ft | 494 kts | 125° |
| 2026-04-20 04:45 | 43.89753 | 6.60456 | 37022 ft | 495 kts | 125° |
| 2026-04-20 04:45 | 43.85830 | 6.68287 | 37016 ft | 495 kts | 125° |
| 2026-04-20 04:46 | 43.81889 | 6.76125 | 36979 ft | 495 kts | 125° |
| 2026-04-20 04:46 | 43.77950 | 6.83954 | 36992 ft | 495 kts | 125° |
| 2026-04-20 04:47 | 43.74003 | 6.91765 | 37011 ft | 496 kts | 126° |
| 2026-04-20 04:47 | 43.69759 | 6.99251 | 37006 ft | 495 kts | 132° |
| 2026-04-20 04:48 | 43.65258 | 7.06451 | 37006 ft | 495 kts | 132° |
| 2026-04-20 04:48 | 43.60763 | 7.13659 | 36983 ft | 495 kts | 132° |
| 2026-04-20 04:49 | 43.56303 | 7.20887 | 36990 ft | 496 kts | 127° |
| 2026-04-20 04:49 | 43.52903 | 7.29127 | 36996 ft | 495 kts | 113° |
| 2026-04-20 04:50 | 43.50074 | 7.37784 | 36993 ft | 496 kts | 114° |
| 2026-04-20 04:50 | 43.47221 | 7.46422 | 36994 ft | 496 kts | 114° |
| 2026-04-20 04:50 | 43.45786 | 7.50756 | 36314 ft | 502 kts | 114° |
| 2026-04-20 04:51 | 43.44297 | 7.55244 | 35275 ft | 511 kts | 114° |
| 2026-04-20 04:51 | 43.42818 | 7.59697 | 34375 ft | 515 kts | 114° |
| 2026-04-20 04:51 | 43.41335 | 7.64159 | 33244 ft | 523 kts | 114° |
| 2026-04-20 04:51 | 43.39803 | 7.68759 | 32588 ft | 519 kts | 114° |
| 2026-04-20 04:52 | 43.38303 | 7.73252 | 31926 ft | 515 kts | 114° |
| 2026-04-20 04:52 | 43.36814 | 7.77713 | 31262 ft | 512 kts | 114° |
| 2026-04-20 04:52 | 43.35327 | 7.82151 | 30600 ft | 509 kts | 114° |
| 2026-04-20 04:52 | 43.33853 | 7.86545 | 30054 ft | 503 kts | 114° |
| 2026-04-20 04:53 | 43.32389 | 7.90904 | 29333 ft | 499 kts | 114° |
| 2026-04-20 04:53 | 43.30944 | 7.95197 | 28631 ft | 495 kts | 114° |
| 2026-04-20 04:53 | 43.29509 | 7.99462 | 28059 ft | 489 kts | 114° |
| 2026-04-20 04:53 | 43.28086 | 8.03690 | 27477 ft | 484 kts | 114° |
| 2026-04-20 04:54 | 43.26674 | 8.07868 | 26819 ft | 482 kts | 114° |
| 2026-04-20 04:54 | 43.25273 | 8.11999 | 26239 ft | 477 kts | 114° |
| 2026-04-20 04:54 | 43.23880 | 8.16102 | 25749 ft | 471 kts | 114° |
| 2026-04-20 04:54 | 43.22497 | 8.20165 | 25138 ft | 468 kts | 114° |
| 2026-04-20 04:55 | 43.21130 | 8.24179 | 24561 ft | 465 kts | 114° |
| 2026-04-20 04:55 | 43.19776 | 8.28167 | 24059 ft | 459 kts | 114° |
| 2026-04-20 04:55 | 43.18432 | 8.32122 | 23550 ft | 455 kts | 114° |
| 2026-04-20 04:55 | 43.17097 | 8.36039 | 22915 ft | 452 kts | 114° |
| 2026-04-20 04:56 | 43.15776 | 8.39903 | 22370 ft | 446 kts | 114° |
| 2026-04-20 04:56 | 43.14626 | 8.43816 | 21897 ft | 439 kts | 105° |
| 2026-04-20 04:56 | 43.13947 | 8.47862 | 21324 ft | 434 kts | 98° |
| 2026-04-20 04:56 | 43.13390 | 8.51898 | 20849 ft | 429 kts | 99° |
| 2026-04-20 04:57 | 43.12836 | 8.55896 | 20357 ft | 425 kts | 99° |
| 2026-04-20 04:57 | 43.12283 | 8.59853 | 19876 ft | 421 kts | 99° |
| 2026-04-20 04:57 | 43.11731 | 8.63780 | 19373 ft | 418 kts | 99° |
| 2026-04-20 04:57 | 43.11184 | 8.67666 | 18898 ft | 415 kts | 99° |
| 2026-04-20 04:58 | 43.10640 | 8.71526 | 18491 ft | 410 kts | 100° |
| 2026-04-20 04:58 | 43.10100 | 8.75363 | 17941 ft | 409 kts | 100° |
| 2026-04-20 04:58 | 43.09556 | 8.79208 | 17432 ft | 406 kts | 100° |
| 2026-04-20 04:58 | 43.09020 | 8.82974 | 16981 ft | 401 kts | 100° |
| 2026-04-20 04:59 | 43.08486 | 8.86713 | 16486 ft | 399 kts | 100° |
| 2026-04-20 04:59 | 43.07958 | 8.90417 | 16035 ft | 396 kts | 100° |
| 2026-04-20 04:59 | 43.07433 | 8.94103 | 15583 ft | 393 kts | 100° |
| 2026-04-20 04:59 | 43.06912 | 8.97747 | 15132 ft | 390 kts | 101° |
| 2026-04-20 05:00 | 43.06389 | 9.01385 | 14683 ft | 388 kts | 101° |
| 2026-04-20 05:00 | 43.05871 | 9.04987 | 14238 ft | 385 kts | 101° |
| 2026-04-20 05:00 | 43.05321 | 9.08553 | 13781 ft | 383 kts | 105° |
| 2026-04-20 05:00 | 43.04513 | 9.12009 | 13341 ft | 378 kts | 108° |
| 2026-04-20 05:01 | 43.03694 | 9.15417 | 12832 ft | 376 kts | 108° |
| 2026-04-20 05:01 | 43.02882 | 9.18793 | 12372 ft | 373 kts | 108° |
| 2026-04-20 05:01 | 43.02074 | 9.22147 | 11910 ft | 370 kts | 108° |
| 2026-04-20 05:01 | 43.01273 | 9.25465 | 11453 ft | 367 kts | 108° |
| 2026-04-20 05:02 | 43.00476 | 9.28762 | 10985 ft | 364 kts | 108° |
| 2026-04-20 05:02 | 42.99684 | 9.32033 | 10522 ft | 362 kts | 108° |
| 2026-04-20 05:02 | 42.98902 | 9.35275 | 10216 ft | 355 kts | 108° |
| 2026-04-20 05:02 | 42.98143 | 9.38416 | 10099 ft | 342 kts | 108° |
| 2026-04-20 05:03 | 42.97405 | 9.41451 | 9973 ft | 331 kts | 108° |
| 2026-04-20 05:03 | 42.96694 | 9.44374 | 9816 ft | 321 kts | 108° |
| 2026-04-20 05:03 | 42.95992 | 9.47250 | 9488 ft | 317 kts | 108° |
| 2026-04-20 05:03 | 42.95298 | 9.50090 | 9145 ft | 314 kts | 108° |
| 2026-04-20 05:04 | 42.94609 | 9.52904 | 8793 ft | 311 kts | 109° |
| 2026-04-20 05:04 | 42.93931 | 9.55649 | 8668 ft | 300 kts | 111° |
| 2026-04-20 05:04 | 42.92860 | 9.57970 | 8530 ft | 284 kts | 141° |
| 2026-04-20 05:04 | 42.91195 | 9.59192 | 8384 ft | 265 kts | 172° |
| 2026-04-20 05:05 | 42.89416 | 9.59182 | 8093 ft | 252 kts | 199° |
| 2026-04-20 05:05 | 42.87734 | 9.58565 | 7732 ft | 250 kts | 200° |
| 2026-04-20 05:05 | 42.86060 | 9.57943 | 7411 ft | 248 kts | 200° |
| 2026-04-20 05:05 | 42.84426 | 9.57244 | 7085 ft | 243 kts | 209° |
| 2026-04-20 05:06 | 42.82917 | 9.56224 | 6756 ft | 241 kts | 211° |
| 2026-04-20 05:06 | 42.81398 | 9.55199 | 6411 ft | 240 kts | 210° |
| 2026-04-20 05:06 | 42.80405 | 9.54532 | 6056 ft | 244 kts | 210° |
| 2026-04-20 05:06 | 42.78865 | 9.53495 | 5389 ft | 248 kts | 210° |
| 2026-04-20 05:07 | 42.77315 | 9.52456 | 4740 ft | 249 kts | 210° |
| 2026-04-20 05:07 | 42.75783 | 9.51433 | 4108 ft | 239 kts | 209° |
| 2026-04-20 05:07 | 42.74341 | 9.50473 | 3734 ft | 225 kts | 208° |
| 2026-04-20 05:07 | 42.72971 | 9.49559 | 3438 ft | 214 kts | 208° |
| 2026-04-20 05:08 | 42.71665 | 9.48684 | 3161 ft | 204 kts | 208° |
| 2026-04-20 05:08 | 42.70408 | 9.47841 | 2913 ft | 197 kts | 207° |
| 2026-04-20 05:08 | 42.69222 | 9.47047 | 2677 ft | 183 kts | 207° |
| 2026-04-20 05:08 | 42.68049 | 9.46559 | 2437 ft | 173 kts | 184° |
| 2026-04-20 05:09 | 42.66891 | 9.46618 | 2218 ft | 158 kts | 176° |
| 2026-04-20 05:09 | 42.65831 | 9.46694 | 1982 ft | 148 kts | 176° |
| 2026-04-20 05:09 | 42.64822 | 9.46765 | 1778 ft | 143 kts | 176° |
| 2026-04-20 05:09 | 42.63828 | 9.46836 | 1577 ft | 142 kts | 176° |
| 2026-04-20 05:10 | 42.62846 | 9.46906 | 1380 ft | 142 kts | 176° |
| 2026-04-20 05:10 | 42.61848 | 9.46976 | 1179 ft | 144 kts | 176° |
| 2026-04-20 05:10 | 42.60843 | 9.47047 | 982 ft | 145 kts | 176° |
| 2026-04-20 05:10 | 42.59831 | 9.47119 | 783 ft | 143 kts | 177° |
| 2026-04-20 05:11 | 42.58844 | 9.47190 | 587 ft | 140 kts | 177° |
| 2026-04-20 05:11 | 42.57881 | 9.47352 | 386 ft | 139 kts | 168° |
| 2026-04-20 05:11 | 42.56953 | 9.47683 | 190 ft | 137 kts | 167° |
| 2026-04-20 05:11 | 42.56051 | 9.48041 | 37 ft | 126 kts | 159° |
| 2026-04-20 05:12 | 42.55364 | 9.48328 | 36 ft | 81 kts | 163° |
| 2026-04-20 05:12 | 42.54990 | 9.48485 | 40 ft | 15 kts | 178° |
| 2026-04-20 05:12 | 42.54977 | 9.48443 | 40 ft | 4 kts | 287° |
| 2026-04-20 05:12 | 42.54985 | 9.48407 | 39 ft | 4 kts | 287° |
| 2026-04-20 05:13 | 42.54977 | 9.48377 | 39 ft | 6 kts | 246° |
| 2026-04-20 05:13 | 42.54956 | 9.48297 | 39 ft | 10 kts | 251° |
| 2026-04-20 05:13 | 42.54907 | 9.48252 | 39 ft | 9 kts | 180° |
| 2026-04-20 05:13 | 42.54878 | 9.48215 | 38 ft | 5 kts | 277° |
| 2026-04-20 05:14 | 42.54885 | 9.48171 | 39 ft | 4 kts | 284° |
| 2026-04-20 05:14 | 42.54890 | 9.48144 | 39 ft | 0 kts | 284° |